Time;durP1;ratioP1;P1;durP2;ratioP2;P2;SDS_P1;SDS_P2;PMS_P1;PMS_P2;Temp;Humidity;BMP_temperature;BMP_pressure;BME280_temperature;BME280_humidity;BME280_pressure;Samples;Min_cycle;Max_cycle;Signal;HPM_P1;HPM_P2
2022/04/06 00:01:46;;;;;;;;;;;9.80;75.10;;;;;;5077841;28;19995;-72
2022/04/06 00:04:12;;;;;;;;;;;9.80;76.10;;;;;;5077236;28;19916;-72
2022/04/06 00:06:38;;;;;;;;;;;9.80;75.80;;;;;;5077574;28;19908;-72
2022/04/06 00:09:04;;;;;;;;;;;9.80;75.60;;;;;;5059765;28;19909;-73
2022/04/06 00:11:30;;;;;;;;;;;9.80;75.80;;;;;;5077883;28;20371;-72
2022/04/06 00:13:56;;;;;;;;;;;9.90;75.60;;;;;;5076217;28;19913;-73
2022/04/06 00:16:22;;;;;;;;;;;9.90;74.90;;;;;;5077513;28;19915;-73
2022/04/06 00:18:47;;;;;;;;;;;10.00;74.70;;;;;;5077307;28;20264;-72
2022/04/06 00:21:13;;;;;;;;;;;9.90;74.70;;;;;;5077289;28;19909;-72
2022/04/06 00:23:39;;;;;;;;;;;9.90;74.80;;;;;;5077379;28;20330;-72
2022/04/06 00:26:04;;;;;;;;;;;10.00;74.90;;;;;;5077491;28;19909;-72
2022/04/06 00:28:30;;;;;;;;;;;9.90;74.70;;;;;;5075429;28;19909;-72
2022/04/06 00:30:56;;;;;;;;;;;10.00;74.70;;;;;;5077293;28;19915;-72
2022/04/06 00:33:22;;;;;;;;;;;10.00;74.50;;;;;;5077070;28;19912;-72
2022/04/06 00:35:48;;;;;;;;;;;10.00;74.60;;;;;;5080544;28;19915;-72
2022/04/06 00:38:14;;;;;;;;;;;10.00;74.50;;;;;;5081499;28;19940;-72
2022/04/06 00:40:40;;;;;;;;;;;10.00;74.40;;;;;;5080820;28;19915;-72
2022/04/06 00:43:10;;;;;;;;;;;10.00;74.60;;;;;;5080980;28;19908;-72
2022/04/06 00:45:36;;;;;;;;;;;10.00;75.40;;;;;;5081526;28;19962;-72
2022/04/06 00:48:01;;;;;;;;;;;10.00;74.50;;;;;;5080853;28;19920;-72
2022/04/06 00:50:27;;;;;;;;;;;10.00;74.50;;;;;;5081168;28;19908;-72
2022/04/06 00:52:55;;;;;;;;;;;10.00;74.50;;;;;;5079764;28;19934;-72
2022/04/06 00:55:21;;;;;;;;;;;10.00;74.50;;;;;;5080664;28;19915;-72
2022/04/06 00:57:48;;;;;;;;;;;10.00;74.60;;;;;;5080931;28;19922;-72
2022/04/06 01:00:14;;;;;;;;;;;10.00;74.50;;;;;;5080954;28;19970;-72
2022/04/06 01:02:40;;;;;;;;;;;10.00;75.40;;;;;;5080402;28;19908;-72
2022/04/06 01:05:06;;;;;;;;;;;10.00;75.20;;;;;;5080325;28;19923;-72
2022/04/06 01:07:32;;;;;;;;;;;10.00;75.30;;;;;;5080540;28;19938;-72
2022/04/06 01:09:57;;;;;;;;;;;10.00;75.00;;;;;;5080707;28;19958;-72
2022/04/06 01:12:24;;;;;;;;;;;10.10;75.80;;;;;;5080520;28;19913;-73
2022/04/06 01:14:49;;;;;;;;;;;10.10;75.20;;;;;;5080449;28;19908;-72
2022/04/06 01:17:15;;;;;;;;;;;10.00;74.80;;;;;;5080587;28;19915;-73
2022/04/06 01:19:43;;;;;;;;;;;10.10;74.70;;;;;;5080431;28;19908;-73
2022/04/06 01:22:10;;;;;;;;;;;10.10;74.60;;;;;;5080250;28;19908;-72
2022/04/06 01:24:36;;;;;;;;;;;10.10;74.70;;;;;;5062682;28;19954;-73
2022/04/06 01:27:01;;;;;;;;;;;10.10;75.60;;;;;;5067693;28;19909;-72
2022/04/06 01:29:27;;;;;;;;;;;10.00;75.20;;;;;;5080481;28;19915;-73
2022/04/06 01:31:53;;;;;;;;;;;10.10;76.60;;;;;;5080346;28;20350;-73
2022/04/06 01:34:18;;;;;;;;;;;10.10;76.40;;;;;;5078719;28;19919;-73
2022/04/06 01:36:44;;;;;;;;;;;10.00;76.10;;;;;;5061714;28;19995;-73
2022/04/06 01:39:10;;;;;;;;;;;10.00;76.90;;;;;;5079244;28;19908;-73
2022/04/06 01:41:37;;;;;;;;;;;10.00;76.10;;;;;;5080035;28;19962;-72
2022/04/06 01:44:04;;;;;;;;;;;10.00;76.20;;;;;;5080027;28;19913;-73
2022/04/06 01:46:30;;;;;;;;;;;9.90;76.30;;;;;;5079029;28;20394;-73
2022/04/06 01:54:24;;;;;;;;;;;9.80;76.40;;;;;;5079537;28;19993;-72
2022/04/06 01:56:50;;;;;;;;;;;9.80;76.40;;;;;;5079753;28;19908;-72
2022/04/06 01:59:16;;;;;;;;;;;9.80;76.50;;;;;;5079757;28;19943;-72
2022/04/06 02:01:43;;;;;;;;;;;9.80;76.00;;;;;;5079796;28;19916;-72
2022/04/06 02:04:15;;;;;;;;;;;9.80;76.40;;;;;;5079336;28;19909;-72
2022/04/06 02:06:41;;;;;;;;;;;9.80;76.10;;;;;;5079832;28;19908;-72
2022/04/06 02:09:08;;;;;;;;;;;9.80;75.90;;;;;;5079442;28;19919;-72
2022/04/06 02:11:34;;;;;;;;;;;9.80;75.90;;;;;;5079646;28;19979;-72
2022/04/06 02:14:00;;;;;;;;;;;9.80;76.00;;;;;;5077197;28;19919;-72
2022/04/06 02:16:26;;;;;;;;;;;9.80;76.70;;;;;;5079327;28;20013;-72
2022/04/06 02:18:52;;;;;;;;;;;9.90;76.90;;;;;;5078307;28;19930;-72
2022/04/06 02:21:18;;;;;;;;;;;9.90;77.20;;;;;;5079052;28;20353;-73
2022/04/06 02:23:43;;;;;;;;;;;9.90;77.90;;;;;;5078969;28;19995;-73
2022/04/06 02:26:09;;;;;;;;;;;9.90;77.60;;;;;;5078804;28;19915;-73
2022/04/06 02:28:35;;;;;;;;;;;9.90;77.40;;;;;;5077711;28;20368;-73
2022/04/06 02:31:00;;;;;;;;;;;9.90;77.70;;;;;;5079062;28;19916;-72
2022/04/06 02:33:26;;;;;;;;;;;10.00;78.00;;;;;;5078712;28;19916;-73
2022/04/06 02:35:52;;;;;;;;;;;10.00;77.90;;;;;;5078863;28;20386;-73
2022/04/06 02:38:17;;;;;;;;;;;10.00;77.90;;;;;;5078857;28;19908;-73
2022/04/06 02:40:43;;;;;;;;;;;10.00;77.70;;;;;;5078730;28;19909;-73
2022/04/06 02:43:08;;;;;;;;;;;10.00;77.70;;;;;;5078631;28;19958;-73
2022/04/06 02:45:34;;;;;;;;;;;10.00;78.10;;;;;;5079104;28;19909;-73
2022/04/06 02:48:00;;;;;;;;;;;10.00;78.00;;;;;;5078554;28;19970;-73
2022/04/06 02:50:25;;;;;;;;;;;10.00;78.30;;;;;;5078651;28;20286;-73
2022/04/06 02:52:51;;;;;;;;;;;9.90;77.80;;;;;;5077450;28;19912;-73
2022/04/06 02:55:16;;;;;;;;;;;9.90;78.20;;;;;;5078427;28;19908;-73
2022/04/06 02:57:43;;;;;;;;;;;9.90;78.10;;;;;;5078324;28;19932;-73
2022/04/06 03:00:08;;;;;;;;;;;9.80;77.60;;;;;;5078812;28;19909;-73
2022/04/06 03:02:35;;;;;;;;;;;9.70;77.40;;;;;;5078186;28;20383;-73
2022/04/06 03:05:01;;;;;;;;;;;9.70;77.90;;;;;;5078148;28;19908;-73
2022/04/06 03:07:26;;;;;;;;;;;9.70;78.50;;;;;;5078339;28;20401;-73
2022/04/06 03:09:52;;;;;;;;;;;9.60;78.90;;;;;;5078170;28;19999;-73
2022/04/06 03:12:18;;;;;;;;;;;9.60;79.00;;;;;;5077784;28;20351;-73
2022/04/06 03:14:43;;;;;;;;;;;9.50;78.60;;;;;;5060450;28;19961;-73
2022/04/06 03:17:09;;;;;;;;;;;9.40;78.90;;;;;;5058408;28;19993;-73
2022/04/06 03:19:35;;;;;;;;;;;9.30;79.40;;;;;;5077155;28;19948;-73
2022/04/06 03:22:01;;;;;;;;;;;9.30;78.70;;;;;;5077883;28;20394;-73
2022/04/06 03:24:26;;;;;;;;;;;9.20;79.40;;;;;;5077251;28;19908;-73
2022/04/06 03:26:52;;;;;;;;;;;9.10;79.00;;;;;;5077378;28;20011;-72
2022/04/06 03:29:18;;;;;;;;;;;9.10;79.90;;;;;;5077259;28;19908;-73
2022/04/06 03:31:43;;;;;;;;;;;9.00;79.90;;;;;;5076378;28;19912;-72
2022/04/06 03:34:09;;;;;;;;;;;8.90;80.30;;;;;;5076369;28;20431;-73
2022/04/06 03:36:34;;;;;;;;;;;8.90;80.10;;;;;;5075524;28;19939;-72
2022/04/06 03:39:00;;;;;;;;;;;8.80;80.70;;;;;;5076613;28;20352;-72
2022/04/06 03:41:26;;;;;;;;;;;8.80;80.70;;;;;;5077696;28;19913;-72
2022/04/06 03:43:52;;;;;;;;;;;8.70;80.40;;;;;;5077984;28;19908;-73
2022/04/06 03:46:18;;;;;;;;;;;8.70;80.50;;;;;;5077695;28;19915;-73
2022/04/06 03:48:44;;;;;;;;;;;8.70;80.90;;;;;;5076519;28;20376;-73
2022/04/06 03:51:10;;;;;;;;;;;8.60;81.00;;;;;;5076070;28;19908;-73
2022/04/06 03:53:35;;;;;;;;;;;8.60;80.90;;;;;;5077302;28;19966;-73
2022/04/06 03:56:01;;;;;;;;;;;8.50;81.50;;;;;;5077713;28;20065;-73
2022/04/06 03:58:27;;;;;;;;;;;8.50;81.60;;;;;;5077863;28;19914;-73
2022/04/06 04:00:52;;;;;;;;;;;8.50;81.10;;;;;;5077782;28;20394;-73
2022/04/06 04:03:18;;;;;;;;;;;8.50;81.30;;;;;;5077696;28;19913;-73
2022/04/06 04:05:43;;;;;;;;;;;8.60;82.00;;;;;;5077384;28;19979;-73
2022/04/06 04:08:09;;;;;;;;;;;8.60;81.90;;;;;;5077968;28;19952;-73
2022/04/06 04:10:35;;;;;;;;;;;8.60;81.90;;;;;;5083607;28;19915;-72
2022/04/06 04:13:00;;;;;;;;;;;8.60;81.30;;;;;;5083381;28;19928;-73
2022/04/06 04:15:26;;;;;;;;;;;8.70;82.30;;;;;;5084254;28;19913;-72
2022/04/06 04:17:52;;;;;;;;;;;8.70;82.50;;;;;;5084076;28;19909;-73
2022/04/06 04:20:17;;;;;;;;;;;8.70;82.00;;;;;;5065976;28;19909;-73
2022/04/06 04:22:43;;;;;;;;;;;8.70;82.40;;;;;;5084327;28;19916;-73
2022/04/06 04:25:10;;;;;;;;;;;8.80;82.50;;;;;;5083944;28;19962;-73
2022/04/06 04:27:36;;;;;;;;;;;8.80;82.70;;;;;;5082332;28;19915;-73
2022/04/06 04:30:02;;;;;;;;;;;8.80;82.70;;;;;;5084115;28;19909;-73
2022/04/06 04:32:28;;;;;;;;;;;8.80;82.30;;;;;;5083846;28;19920;-71
2022/04/06 04:34:53;;;;;;;;;;;8.80;82.20;;;;;;5083211;28;19909;-77
2022/04/06 04:37:19;;;;;;;;;;;8.80;82.30;;;;;;5083784;28;19908;-77
2022/04/06 04:39:45;;;;;;;;;;;8.80;82.80;;;;;;5081801;28;19931;-72
2022/04/06 04:42:10;;;;;;;;;;;8.80;82.70;;;;;;5083409;28;19909;-72
2022/04/06 04:44:36;;;;;;;;;;;8.80;82.30;;;;;;5083715;28;19970;-72
2022/04/06 04:47:02;;;;;;;;;;;8.80;82.50;;;;;;5083537;28;19909;-74
2022/04/06 04:49:28;;;;;;;;;;;8.80;82.30;;;;;;5065177;28;20006;-78
2022/04/06 04:51:54;;;;;;;;;;;8.80;82.80;;;;;;5066195;28;19919;-84
2022/04/06 04:54:24;;;;;;;;;;;8.80;82.80;;;;;;5066128;28;19912;-74
2022/04/06 04:56:50;;;;;;;;;;;8.80;82.80;;;;;;5065893;28;19908;-78
2022/04/06 04:59:18;;;;;;;;;;;8.80;83.00;;;;;;5081317;28;21336;-78
2022/04/06 05:01:44;;;;;;;;;;;8.80;83.10;;;;;;5083170;28;19989;-76
2022/04/06 05:04:09;;;;;;;;;;;8.90;82.70;;;;;;5083454;28;19908;-75
2022/04/06 05:06:38;;;;;;;;;;;8.80;81.80;;;;;;5083935;28;19915;-74
2022/04/06 05:09:04;;;;;;;;;;;8.80;81.00;;;;;;5083698;28;19915;-74
2022/04/06 05:11:30;;;;;;;;;;;8.90;81.50;;;;;;5066016;28;19909;-76
2022/04/06 05:13:55;;;;;;;;;;;8.90;81.60;;;;;;5065737;28;19908;-73
2022/04/06 05:16:21;;;;;;;;;;;8.90;82.40;;;;;;5083830;28;19999;-72
2022/04/06 05:18:47;;;;;;;;;;;8.90;81.90;;;;;;5083631;28;19912;-75
2022/04/06 05:21:12;;;;;;;;;;;8.90;81.10;;;;;;5080658;28;19908;-72
2022/04/06 05:23:38;;;;;;;;;;;9.00;81.70;;;;;;5080467;28;19908;-72
2022/04/06 05:26:03;;;;;;;;;;;9.00;82.00;;;;;;5080507;28;19912;-72
2022/04/06 05:28:30;;;;;;;;;;;9.00;81.70;;;;;;5079894;28;19917;-73
2022/04/06 05:30:55;;;;;;;;;;;9.00;81.20;;;;;;5080694;28;19983;-72
2022/04/06 05:33:21;;;;;;;;;;;9.10;81.30;;;;;;5080149;28;20347;-72
2022/04/06 05:35:47;;;;;;;;;;;9.10;81.50;;;;;;5080246;28;19912;-72
2022/04/06 05:38:12;;;;;;;;;;;9.10;81.20;;;;;;5080197;28;20375;-72
2022/04/06 05:40:38;;;;;;;;;;;9.20;81.10;;;;;;5080104;28;19909;-72
2022/04/06 05:43:04;;;;;;;;;;;9.20;80.40;;;;;;5080119;28;19908;-72
2022/04/06 05:45:29;;;;;;;;;;;9.20;79.90;;;;;;5080282;28;19915;-73
2022/04/06 05:47:55;;;;;;;;;;;9.20;80.00;;;;;;5079874;28;19920;-72
2022/04/06 05:50:21;;;;;;;;;;;9.30;80.50;;;;;;5079934;28;19920;-71
2022/04/06 05:52:48;;;;;;;;;;;9.30;80.00;;;;;;5079827;28;19970;-71
2022/04/06 05:55:14;;;;;;;;;;;9.20;80.00;;;;;;5080147;28;19908;-72
2022/04/06 05:57:40;;;;;;;;;;;9.30;79.80;;;;;;5079861;28;20034;-72
2022/04/06 06:00:07;;;;;;;;;;;9.30;79.60;;;;;;5079950;28;19916;-72
2022/04/06 06:02:33;;;;;;;;;;;9.30;79.40;;;;;;5079713;28;20390;-72
2022/04/06 06:04:59;;;;;;;;;;;9.30;79.50;;;;;;5079589;28;19912;-72
2022/04/06 06:07:25;;;;;;;;;;;9.30;79.60;;;;;;5079645;28;19909;-72
2022/04/06 06:09:50;;;;;;;;;;;9.40;80.50;;;;;;5079811;28;19912;-72
2022/04/06 06:12:16;;;;;;;;;;;9.40;80.50;;;;;;5079396;28;20045;-72
2022/04/06 06:14:41;;;;;;;;;;;9.40;80.40;;;;;;5079833;28;19999;-72
2022/04/06 06:17:07;;;;;;;;;;;9.40;80.80;;;;;;5079509;28;19940;-72
2022/04/06 06:19:33;;;;;;;;;;;9.40;80.90;;;;;;5079527;28;19952;-72
2022/04/06 06:21:58;;;;;;;;;;;9.40;80.80;;;;;;5079370;28;20401;-72
2022/04/06 06:24:24;;;;;;;;;;;9.50;80.90;;;;;;5079469;28;19908;-72
2022/04/06 06:26:50;;;;;;;;;;;9.50;81.00;;;;;;5078880;28;19908;-72
2022/04/06 06:29:16;;;;;;;;;;;9.50;81.10;;;;;;5079446;28;19936;-72
2022/04/06 06:31:41;;;;;;;;;;;9.50;81.20;;;;;;5078744;28;19908;-72
2022/04/06 06:34:07;;;;;;;;;;;9.60;81.10;;;;;;5078855;28;20325;-72
2022/04/06 06:36:33;;;;;;;;;;;9.60;81.70;;;;;;5079007;28;19908;-72
2022/04/06 06:38:58;;;;;;;;;;;9.60;81.70;;;;;;5079081;28;19909;-72
2022/04/06 06:41:24;;;;;;;;;;;9.70;81.60;;;;;;5078853;28;19994;-72
2022/04/06 06:43:50;;;;;;;;;;;9.70;81.50;;;;;;5079102;28;19909;-73
2022/04/06 06:46:16;;;;;;;;;;;9.70;81.20;;;;;;5079104;28;19916;-73
2022/04/06 06:48:42;;;;;;;;;;;9.80;81.20;;;;;;5078890;28;19925;-73
2022/04/06 06:51:08;;;;;;;;;;;9.90;80.80;;;;;;5078620;28;19912;-73
2022/04/06 06:53:33;;;;;;;;;;;9.90;81.20;;;;;;5078893;28;19999;-73
2022/04/06 06:55:59;;;;;;;;;;;10.00;81.00;;;;;;5078621;28;19915;-73
2022/04/06 06:58:24;;;;;;;;;;;10.10;81.40;;;;;;5078806;28;19916;-72
2022/04/06 07:00:50;;;;;;;;;;;10.10;81.10;;;;;;5078529;28;19915;-73
2022/04/06 07:03:16;;;;;;;;;;;10.20;81.60;;;;;;5078534;28;20339;-73
2022/04/06 07:05:41;;;;;;;;;;;10.20;81.00;;;;;;5078287;28;19999;-72
2022/04/06 07:08:07;;;;;;;;;;;10.30;81.00;;;;;;5078703;28;19915;-72
2022/04/06 07:10:33;;;;;;;;;;;10.40;81.40;;;;;;5078333;28;19909;-73
2022/04/06 07:12:59;;;;;;;;;;;10.40;81.00;;;;;;5078542;28;19912;-73
2022/04/06 07:15:25;;;;;;;;;;;10.50;80.90;;;;;;5078354;28;19913;-73
2022/04/06 07:17:54;;;;;;;;;;;10.60;81.50;;;;;;5078507;28;19909;-73
2022/04/06 07:20:21;;;;;;;;;;;10.50;80.90;;;;;;5077951;28;19995;-73
2022/04/06 07:22:47;;;;;;;;;;;10.60;80.60;;;;;;5078358;28;19919;-73
2022/04/06 07:25:13;;;;;;;;;;;10.60;81.00;;;;;;5078058;28;19944;-73
2022/04/06 07:27:39;;;;;;;;;;;10.70;81.20;;;;;;5059894;28;20022;-73
2022/04/06 07:30:06;;;;;;;;;;;10.70;81.30;;;;;;5078125;28;20387;-73
2022/04/06 07:32:32;;;;;;;;;;;10.70;81.50;;;;;;5077949;28;19970;-73
2022/04/06 07:34:58;;;;;;;;;;;10.80;81.70;;;;;;5077711;28;20264;-73
2022/04/06 07:37:24;;;;;;;;;;;10.80;82.70;;;;;;5078315;28;19974;-73
2022/04/06 07:39:49;;;;;;;;;;;10.90;82.60;;;;;;5077765;28;19915;-73
2022/04/06 07:42:15;;;;;;;;;;;11.00;82.90;;;;;;5077945;28;20401;-73
2022/04/06 07:44:40;;;;;;;;;;;11.20;82.80;;;;;;5059208;28;19909;-73
2022/04/06 07:47:06;;;;;;;;;;;11.50;82.50;;;;;;5078033;28;19942;-73
2022/04/06 07:49:32;;;;;;;;;;;11.80;81.90;;;;;;5077555;28;19920;-73
2022/04/06 07:51:57;;;;;;;;;;;12.00;80.90;;;;;;5059878;28;19912;-73
2022/04/06 07:54:23;;;;;;;;;;;12.10;80.30;;;;;;5077687;28;19908;-73
2022/04/06 07:56:49;;;;;;;;;;;12.20;79.90;;;;;;5078107;28;19916;-73
2022/04/06 07:59:14;;;;;;;;;;;12.20;79.20;;;;;;5078086;28;19971;-73
2022/04/06 08:01:40;;;;;;;;;;;12.20;79.10;;;;;;5077998;28;19909;-73
2022/04/06 08:04:05;;;;;;;;;;;12.20;79.40;;;;;;5077405;28;19913;-74
2022/04/06 08:06:31;;;;;;;;;;;12.40;79.30;;;;;;5077924;28;19909;-73
2022/04/06 08:08:58;;;;;;;;;;;12.40;78.60;;;;;;5077546;28;19954;-73
2022/04/06 08:11:24;;;;;;;;;;;12.40;78.50;;;;;;5077874;28;19934;-73
2022/04/06 08:13:50;;;;;;;;;;;12.40;78.30;;;;;;5077668;28;20456;-73
2022/04/06 08:16:16;;;;;;;;;;;12.40;78.50;;;;;;5077806;28;20364;-73
2022/04/06 08:18:42;;;;;;;;;;;12.50;79.00;;;;;;5077593;28;19908;-73
2022/04/06 08:21:09;;;;;;;;;;;12.40;79.60;;;;;;5077470;28;19909;-74
2022/04/06 08:23:35;;;;;;;;;;;12.30;80.70;;;;;;5077707;28;19909;-73
2022/04/06 08:26:00;;;;;;;;;;;12.20;81.90;;;;;;5077549;28;19915;-73
2022/04/06 08:28:26;;;;;;;;;;;12.10;83.30;;;;;;5076982;28;19991;-73
2022/04/06 08:30:52;;;;;;;;;;;12.00;82.50;;;;;;5077584;28;19916;-73
2022/04/06 08:33:17;;;;;;;;;;;11.90;83.20;;;;;;5077146;28;19982;-73
2022/04/06 08:35:43;;;;;;;;;;;12.00;83.60;;;;;;5077356;28;19988;-73
2022/04/06 08:38:14;;;;;;;;;;;11.90;83.50;;;;;;5077542;28;19955;-73
2022/04/06 08:40:42;;;;;;;;;;;11.90;83.30;;;;;;5059144;28;20394;-73
2022/04/06 08:43:08;;;;;;;;;;;11.90;84.40;;;;;;5077307;28;20390;-73
2022/04/06 08:45:35;;;;;;;;;;;11.80;84.60;;;;;;5077639;28;19909;-73
2022/04/06 08:48:01;;;;;;;;;;;11.80;84.20;;;;;;5077063;28;20291;-73
2022/04/06 08:50:29;;;;;;;;;;;11.70;84.50;;;;;;5077272;28;19912;-73
2022/04/06 08:52:55;;;;;;;;;;;11.70;84.20;;;;;;5059067;28;19912;-73
2022/04/06 08:55:21;;;;;;;;;;;11.70;84.60;;;;;;5060197;28;19908;-73
2022/04/06 08:57:46;;;;;;;;;;;11.80;84.60;;;;;;5080950;28;19920;-73
2022/04/06 09:00:15;;;;;;;;;;;12.00;84.50;;;;;;5081180;28;19915;-72
2022/04/06 09:02:41;;;;;;;;;;;12.30;83.90;;;;;;5080761;28;19909;-73
2022/04/06 09:05:09;;;;;;;;;;;12.70;83.00;;;;;;5080786;28;19918;-73
2022/04/06 09:07:35;;;;;;;;;;;13.30;82.70;;;;;;5080771;28;19956;-74
2022/04/06 09:10:01;;;;;;;;;;;14.30;82.30;;;;;;5080784;28;19930;-73
2022/04/06 09:12:28;;;;;;;;;;;15.80;77.80;;;;;;5080511;28;19912;-74
2022/04/06 09:15:10;;;;;;;;;;;17.30;71.90;;;;;;5080857;28;20016;-74
2022/04/06 09:17:56;;;;;;;;;;;18.60;68.20;;;;;;5068562;28;19908;-75
2022/04/06 09:20:24;;;;;;;;;;;19.60;64.30;;;;;;5079780;28;20014;-74
2022/04/06 09:22:50;;;;;;;;;;;20.50;61.50;;;;;;5080851;28;19915;-75
2022/04/06 09:25:18;;;;;;;;;;;21.10;56.90;;;;;;5080333;28;19908;-75
2022/04/06 09:27:44;;;;;;;;;;;21.60;57.60;;;;;;5078121;28;20351;-75
2022/04/06 09:30:10;;;;;;;;;;;22.00;56.30;;;;;;5080380;28;19908;-75
2022/04/06 09:32:35;;;;;;;;;;;22.20;52.70;;;;;;5080183;28;20434;-75
2022/04/06 09:35:01;;;;;;;;;;;21.80;52.60;;;;;;5061876;28;20557;-76
2022/04/06 09:37:28;;;;;;;;;;;21.40;53.20;;;;;;5080470;28;19913;-75
2022/04/06 09:39:56;;;;;;;;;;;21.00;53.30;;;;;;5061954;28;20429;-76
2022/04/06 09:42:22;;;;;;;;;;;20.90;53.60;;;;;;5062273;28;20367;-76
2022/04/06 09:47:39;;;;;;;;;;;21.80;55.30;;;;;;5079959;28;20476;-76
2022/04/06 09:50:13;;;;;;;;;;;22.00;52.30;;;;;;5079996;28;19912;-75
2022/04/06 09:52:39;;;;;;;;;;;22.10;53.00;;;;;;5079931;28;19912;-76
2022/04/06 09:55:09;;;;;;;;;;;22.00;52.40;;;;;;5079994;28;20390;-76
2022/04/06 09:57:41;;;;;;;;;;;21.70;51.40;;;;;;5079971;28;19913;-76
2022/04/06 10:00:07;;;;;;;;;;;21.40;51.50;;;;;;5080134;28;19939;-75
2022/04/06 10:02:33;;;;;;;;;;;21.30;53.00;;;;;;5079752;28;19913;-75
2022/04/06 10:05:01;;;;;;;;;;;21.10;53.40;;;;;;5079699;28;20387;-75
2022/04/06 10:07:27;;;;;;;;;;;20.80;53.10;;;;;;5079042;28;19946;-76
2022/04/06 10:09:53;;;;;;;;;;;20.20;52.80;;;;;;5079668;28;19909;-75
2022/04/06 10:12:18;;;;;;;;;;;19.90;54.80;;;;;;5079500;28;20364;-75
2022/04/06 10:14:44;;;;;;;;;;;20.20;54.30;;;;;;5079708;28;19909;-76
2022/04/06 10:17:10;;;;;;;;;;;20.40;54.40;;;;;;5079564;28;20391;-76
2022/04/06 10:19:41;;;;;;;;;;;20.30;53.20;;;;;;5079248;28;19909;-75
2022/04/06 10:22:17;;;;;;;;;;;20.20;53.20;;;;;;5079386;28;20329;-75
2022/04/06 10:24:42;;;;;;;;;;;20.20;54.70;;;;;;5079411;28;19932;-75
2022/04/06 10:27:26;;;;;;;;;;;20.30;55.30;;;;;;5079236;28;19909;-75
2022/04/06 10:30:08;;;;;;;;;;;20.30;54.40;;;;;;5079410;28;19908;-75
2022/04/06 10:32:34;;;;;;;;;;;20.20;54.30;;;;;;5078964;28;19920;-75
2022/04/06 10:35:18;;;;;;;;;;;19.90;53.90;;;;;;5078750;28;19909;-75
2022/04/06 10:37:51;;;;;;;;;;;19.60;54.50;;;;;;5079433;28;19912;-74
2022/04/06 10:40:17;;;;;;;;;;;19.20;55.80;;;;;;5078898;28;19912;-75
2022/04/06 10:42:45;;;;;;;;;;;18.90;55.90;;;;;;5079162;28;19973;-75
2022/04/06 10:45:27;;;;;;;;;;;18.90;57.00;;;;;;5065893;28;19958;-75
2022/04/06 10:48:16;;;;;;;;;;;18.60;56.70;;;;;;5078866;28;19916;-74
2022/04/06 10:50:46;;;;;;;;;;;18.30;56.90;;;;;;5070620;28;19916;-75
2022/04/06 10:53:18;;;;;;;;;;;18.10;57.70;;;;;;5078675;28;19919;-74
2022/04/06 10:56:12;;;;;;;;;;;18.00;58.20;;;;;;5078681;28;19909;-75
2022/04/06 10:58:55;;;;;;;;;;;17.90;57.90;;;;;;5079006;28;20006;-75
2022/04/06 11:01:31;;;;;;;;;;;17.80;58.10;;;;;;5065723;28;19908;-75
2022/04/06 11:03:58;;;;;;;;;;;17.70;59.00;;;;;;5078238;28;19970;-75
2022/04/06 11:07:03;;;;;;;;;;;17.70;58.10;;;;;;5078609;28;19916;-75
2022/04/06 11:12:23;;;;;;;;;;;17.80;58.60;;;;;;5078444;28;20452;-75
2022/04/06 11:15:01;;;;;;;;;;;17.80;58.60;;;;;;5078699;28;19942;-75
2022/04/06 11:17:34;;;;;;;;;;;17.70;58.90;;;;;;5078258;28;20291;-75
2022/04/06 11:20:06;;;;;;;;;;;17.40;59.20;;;;;;5077101;28;20368;-74
2022/04/06 11:22:32;;;;;;;;;;;17.20;59.70;;;;;;5078483;28;19908;-75
2022/04/06 11:24:59;;;;;;;;;;;17.00;60.20;;;;;;5078093;28;19912;-74
2022/04/06 11:27:32;;;;;;;;;;;16.80;60.40;;;;;;5078037;28;19909;-75
2022/04/06 11:30:03;;;;;;;;;;;16.70;61.10;;;;;;5078023;28;19915;-75
2022/04/06 11:32:29;;;;;;;;;;;16.50;61.60;;;;;;5077904;28;20519;-76
2022/04/06 11:34:58;;;;;;;;;;;16.50;62.00;;;;;;5077658;28;20364;-74
2022/04/06 11:37:24;;;;;;;;;;;16.50;62.20;;;;;;5078080;28;20363;-74
2022/04/06 11:39:54;;;;;;;;;;;16.60;62.60;;;;;;5077798;28;20029;-76
2022/04/06 11:42:21;;;;;;;;;;;16.60;61.80;;;;;;5078036;28;20287;-75
2022/04/06 11:44:46;;;;;;;;;;;16.50;61.50;;;;;;5059856;28;19940;-76
2022/04/06 11:47:12;;;;;;;;;;;16.40;62.20;;;;;;5078129;28;19915;-75
2022/04/06 11:49:37;;;;;;;;;;;16.40;62.60;;;;;;5077475;28;20375;-75
2022/04/06 11:52:04;;;;;;;;;;;16.30;62.50;;;;;;5077990;28;20382;-75
2022/04/06 11:54:30;;;;;;;;;;;16.00;62.80;;;;;;5077574;28;19909;-75
2022/04/06 11:56:56;;;;;;;;;;;16.00;63.50;;;;;;5077911;28;19909;-75
2022/04/06 11:59:23;;;;;;;;;;;15.80;63.80;;;;;;5059784;28;19917;-75
2022/04/06 12:01:49;;;;;;;;;;;15.80;64.30;;;;;;5077940;28;19908;-75
2022/04/06 12:04:16;;;;;;;;;;;15.70;64.60;;;;;;5077516;28;19916;-75
2022/04/06 12:06:42;;;;;;;;;;;15.60;64.70;;;;;;5077858;28;19909;-74
2022/04/06 12:09:08;;;;;;;;;;;15.50;65.50;;;;;;5077538;28;19908;-75
2022/04/06 12:11:35;;;;;;;;;;;15.50;66.10;;;;;;5077926;28;20252;-75
2022/04/06 12:14:01;;;;;;;;;;;15.30;66.30;;;;;;5077513;28;19935;-75
2022/04/06 12:16:27;;;;;;;;;;;15.20;66.80;;;;;;5078003;28;19912;-75
2022/04/06 12:18:52;;;;;;;;;;;15.30;67.20;;;;;;5077246;28;20299;-75
2022/04/06 12:21:19;;;;;;;;;;;15.40;67.40;;;;;;5077936;28;20407;-75
2022/04/06 12:23:45;;;;;;;;;;;15.60;67.50;;;;;;5077637;28;19915;-74
2022/04/06 12:26:11;;;;;;;;;;;15.80;66.90;;;;;;5077768;28;19908;-74
2022/04/06 12:28:37;;;;;;;;;;;15.90;66.80;;;;;;5077050;28;19958;-74
2022/04/06 12:31:03;;;;;;;;;;;16.10;66.40;;;;;;5079970;28;19913;-75
2022/04/06 12:33:37;;;;;;;;;;;16.30;65.50;;;;;;5081040;28;19912;-75
2022/04/06 12:36:08;;;;;;;;;;;16.60;65.30;;;;;;5081600;28;19948;-75
2022/04/06 12:38:34;;;;;;;;;;;16.80;64.70;;;;;;5081355;28;19908;-75
2022/04/06 12:41:13;;;;;;;;;;;16.80;63.20;;;;;;5081348;28;19947;-75
2022/04/06 12:43:48;;;;;;;;;;;16.70;63.30;;;;;;5068759;28;19909;-76
2022/04/06 12:46:13;;;;;;;;;;;16.50;63.70;;;;;;5081504;28;19908;-75
2022/04/06 12:48:39;;;;;;;;;;;16.40;64.50;;;;;;5080971;28;19931;-73
2022/04/06 12:51:21;;;;;;;;;;;16.30;64.30;;;;;;5081051;28;19908;-73
2022/04/06 12:53:50;;;;;;;;;;;16.20;64.70;;;;;;5081006;28;19935;-73
2022/04/06 12:56:21;;;;;;;;;;;16.10;64.40;;;;;;5081059;28;19999;-74
2022/04/06 12:59:04;;;;;;;;;;;16.20;65.30;;;;;;5081172;28;19908;-74
2022/04/06 13:01:30;;;;;;;;;;;16.20;65.80;;;;;;5069863;28;19962;-73
2022/04/06 13:03:57;;;;;;;;;;;16.20;65.20;;;;;;5080601;28;19912;-74
2022/04/06 13:06:22;;;;;;;;;;;16.20;65.60;;;;;;5081563;28;19913;-75
2022/04/06 13:08:48;;;;;;;;;;;16.30;66.10;;;;;;5080797;28;19914;-75
2022/04/06 13:11:13;;;;;;;;;;;16.30;66.80;;;;;;5080906;28;19908;-75
2022/04/06 13:13:39;;;;;;;;;;;16.30;67.20;;;;;;5080646;28;20024;-75
2022/04/06 13:16:04;;;;;;;;;;;16.40;67.10;;;;;;5080939;28;19908;-74
2022/04/06 13:18:30;;;;;;;;;;;16.50;67.40;;;;;;5080437;28;20295;-73
2022/04/06 13:20:56;;;;;;;;;;;16.70;67.00;;;;;;5080765;28;20356;-74
2022/04/06 13:23:21;;;;;;;;;;;16.90;67.00;;;;;;5080463;28;19916;-73
2022/04/06 13:25:47;;;;;;;;;;;17.10;66.10;;;;;;5080562;28;19918;-75
2022/04/06 13:28:13;;;;;;;;;;;17.20;65.60;;;;;;5080118;28;19908;-73
2022/04/06 13:30:39;;;;;;;;;;;17.30;65.00;;;;;;5080673;28;19909;-76
2022/04/06 13:33:05;;;;;;;;;;;17.40;64.30;;;;;;5080231;28;19920;-75
2022/04/06 13:35:31;;;;;;;;;;;17.40;64.70;;;;;;5080204;28;19908;-73
2022/04/06 13:37:56;;;;;;;;;;;17.50;64.50;;;;;;5080391;28;19913;-75
2022/04/06 13:40:22;;;;;;;;;;;17.60;64.80;;;;;;5062056;28;19908;-75
2022/04/06 13:42:48;;;;;;;;;;;17.50;63.70;;;;;;5079213;28;19970;-75
2022/04/06 13:45:14;;;;;;;;;;;17.60;64.40;;;;;;5080407;28;19912;-75
2022/04/06 13:47:39;;;;;;;;;;;17.50;64.40;;;;;;5080104;28;19908;-75
2022/04/06 13:50:06;;;;;;;;;;;17.40;64.20;;;;;;5079934;28;19958;-75
2022/04/06 13:52:34;;;;;;;;;;;17.30;64.90;;;;;;5080053;28;19913;-76
2022/04/06 13:55:00;;;;;;;;;;;17.20;64.80;;;;;;5079966;28;19919;-75
2022/04/06 13:57:26;;;;;;;;;;;17.10;65.40;;;;;;5080092;28;20260;-74
2022/04/06 13:59:51;;;;;;;;;;;16.90;65.70;;;;;;5080216;28;19909;-74
2022/04/06 14:02:17;;;;;;;;;;;16.80;66.20;;;;;;5079754;28;20454;-74
2022/04/06 14:04:43;;;;;;;;;;;16.70;66.60;;;;;;5079824;28;19908;-75
2022/04/06 14:07:08;;;;;;;;;;;16.60;67.50;;;;;;5079636;28;19916;-75
2022/04/06 14:09:34;;;;;;;;;;;16.50;68.50;;;;;;5079758;28;20280;-75
2022/04/06 14:12:02;;;;;;;;;;;16.60;68.60;;;;;;5079600;28;19916;-74
2022/04/06 14:14:27;;;;;;;;;;;16.70;68.50;;;;;;5079678;28;19909;-75
2022/04/06 14:16:53;;;;;;;;;;;16.70;68.00;;;;;;5079679;28;20375;-75
2022/04/06 14:19:18;;;;;;;;;;;16.80;68.20;;;;;;5079331;28;20294;-75
2022/04/06 14:21:44;;;;;;;;;;;16.80;68.20;;;;;;5061493;28;19916;-75
2022/04/06 14:24:10;;;;;;;;;;;16.80;67.60;;;;;;5079414;28;20337;-74
2022/04/06 14:26:37;;;;;;;;;;;16.70;67.90;;;;;;5078991;28;20003;-75
2022/04/06 14:29:03;;;;;;;;;;;16.60;68.20;;;;;;5079448;28;19913;-75
2022/04/06 14:31:28;;;;;;;;;;;16.50;68.50;;;;;;5079390;28;19916;-75